Terminal Aerodrome Forecast
Issued by NWS

Home | Current Version | Previous Version | Text Only | Print | Product List | Glossary On
Versions: 1 2 3 4 5 6 7 8 9 10 11 12 13 14 15 16 17
000
FTUS45 KTFX 060525
TAFGTF
TAF
KGTF 060525Z 0606/0706 33008KT P6SM VCSH SCT045 BKN090
      TEMPO 0608/0612 5SM -SHRA BR OVC015
     FM061800 05007KT P6SM OVC050
     FM062200 VRB05KT P6SM SCT050=

USA.gov is the U.S. government's official web portal to all federal, state and local government web resources and services.